Time;durP1;ratioP1;P1;durP2;ratioP2;P2;SDS_P1;SDS_P2;PMS_P1;PMS_P2;Temp;Humidity;BMP_temperature;BMP_pressure;BME280_temperature;BME280_humidity;BME280_pressure;Samples;Min_cycle;Max_cycle;Signal;HPM_P1;HPM_P2
2020/12/24 00:01:01;;;;;;;2.70;0.70;;;;;;;;;;4944816;28;20058;-61
2020/12/24 00:03:27;;;;;;;4.13;0.90;;;;;;;;;;4954830;28;20047;-62
2020/12/24 00:05:53;;;;;;;5.22;0.80;;;;;;;;;;4960146;28;20054;-62
2020/12/24 00:08:21;;;;;;;7.90;1.35;;;;;;;;;;4940910;28;20052;-62
2020/12/24 00:10:47;;;;;;;2.88;0.80;;;;;;;;;;4944250;29;20051;-62
2020/12/24 00:13:13;;;;;;;1.85;0.80;;;;;;;;;;4944683;28;20039;-61
2020/12/24 00:15:40;;;;;;;1.88;1.00;;;;;;;;;;4937241;29;20179;-61
2020/12/24 00:18:07;;;;;;;5.72;0.77;;;;;;;;;;4958282;28;20087;-62
2020/12/24 00:20:33;;;;;;;3.75;1.00;;;;;;;;;;4936218;28;20040;-61
2020/12/24 00:22:59;;;;;;;3.45;1.05;;;;;;;;;;4945165;28;20035;-62
2020/12/24 00:25:26;;;;;;;2.80;1.00;;;;;;;;;;4941309;28;20128;-62
2020/12/24 00:27:52;;;;;;;3.08;1.10;;;;;;;;;;4959674;28;20040;-62
2020/12/24 00:30:18;;;;;;;4.78;1.00;;;;;;;;;;4959485;28;20055;-61
2020/12/24 00:32:44;;;;;;;6.38;1.33;;;;;;;;;;4946139;28;20050;-62
2020/12/24 00:35:12;;;;;;;3.13;1.20;;;;;;;;;;4946833;28;20051;-61
2020/12/24 00:37:38;;;;;;;4.57;1.57;;;;;;;;;;4942821;28;20047;-62
2020/12/24 00:40:04;;;;;;;9.85;1.40;;;;;;;;;;4947786;28;20044;-62
2020/12/24 00:42:30;;;;;;;5.18;1.20;;;;;;;;;;4931825;28;20095;-62
2020/12/24 00:44:57;;;;;;;4.63;1.27;;;;;;;;;;4926414;28;20048;-62
2020/12/24 00:47:23;;;;;;;3.28;1.10;;;;;;;;;;4953384;28;20043;-62
2020/12/24 00:49:49;;;;;;;3.50;1.38;;;;;;;;;;4966806;28;20043;-62
2020/12/24 00:52:16;;;;;;;3.90;1.10;;;;;;;;;;4974158;28;20054;-61
2020/12/24 00:54:42;;;;;;;3.40;1.20;;;;;;;;;;4965059;28;20039;-62
2020/12/24 00:57:08;;;;;;;3.15;1.17;;;;;;;;;;4958463;28;20063;-62
2020/12/24 00:59:34;;;;;;;4.85;1.27;;;;;;;;;;4960500;28;20051;-62
2020/12/24 01:02:00;;;;;;;7.38;1.35;;;;;;;;;;4945786;28;20062;-62
2020/12/24 01:04:26;;;;;;;14.52;1.08;;;;;;;;;;4961305;28;20110;-62
2020/12/24 01:06:52;;;;;;;7.90;1.20;;;;;;;;;;4980735;28;20088;-62
2020/12/24 01:09:19;;;;;;;4.75;1.40;;;;;;;;;;4945439;28;20047;-61
2020/12/24 01:11:45;;;;;;;8.00;1.27;;;;;;;;;;4960772;28;20051;-61
2020/12/24 01:14:11;;;;;;;3.05;1.00;;;;;;;;;;4957992;28;20047;-62
2020/12/24 01:16:39;;;;;;;9.27;1.33;;;;;;;;;;4972893;28;20059;-61
2020/12/24 01:19:05;;;;;;;6.30;1.30;;;;;;;;;;4943163;28;20047;-61
2020/12/24 01:21:31;;;;;;;4.43;1.05;;;;;;;;;;4961439;28;20059;-62
2020/12/24 01:23:57;;;;;;;6.47;1.00;;;;;;;;;;4963004;28;20079;-62
2020/12/24 01:26:24;;;;;;;5.95;0.85;;;;;;;;;;4960963;28;20056;-62
2020/12/24 01:28:50;;;;;;;5.22;1.25;;;;;;;;;;4963892;28;20066;-62
2020/12/24 01:31:16;;;;;;;3.95;1.08;;;;;;;;;;4964919;28;20047;-62
2020/12/24 01:33:42;;;;;;;8.02;1.45;;;;;;;;;;4954787;28;20050;-62
2020/12/24 01:36:09;;;;;;;4.55;1.00;;;;;;;;;;4962141;28;20043;-62
2020/12/24 01:38:39;;;;;;;7.53;1.02;;;;;;;;;;4943408;28;20051;-62
2020/12/24 01:41:05;;;;;;;7.15;1.50;;;;;;;;;;4966255;28;20063;-62
2020/12/24 01:43:32;;;;;;;3.47;0.68;;;;;;;;;;4945174;29;20057;-62
2020/12/24 01:46:00;;;;;;;6.63;0.77;;;;;;;;;;4924794;28;20096;-62
2020/12/24 01:48:26;;;;;;;5.22;0.70;;;;;;;;;;4943428;28;20044;-62
2020/12/24 01:50:52;;;;;;;4.65;0.70;;;;;;;;;;4939746;28;20146;-61
2020/12/24 01:53:19;;;;;;;5.15;1.30;;;;;;;;;;4926776;29;20052;-62
2020/12/24 01:55:46;;;;;;;3.17;0.90;;;;;;;;;;4937416;28;20040;-62
2020/12/24 01:58:12;;;;;;;6.72;0.60;;;;;;;;;;4961539;28;20058;-62
2020/12/24 02:00:39;;;;;;;1.88;0.57;;;;;;;;;;4958891;28;20052;-62
2020/12/24 02:03:05;;;;;;;8.13;0.70;;;;;;;;;;4960335;28;20048;-62
2020/12/24 02:05:31;;;;;;;1.88;0.70;;;;;;;;;;4959443;28;20072;-62
2020/12/24 02:07:57;;;;;;;6.20;1.25;;;;;;;;;;4962200;28;20036;-62
2020/12/24 02:10:24;;;;;;;3.92;0.95;;;;;;;;;;4958754;28;20043;-61
2020/12/24 02:12:50;;;;;;;6.45;1.10;;;;;;;;;;4962029;28;20043;-62
2020/12/24 02:15:16;;;;;;;5.95;0.93;;;;;;;;;;4943383;28;20123;-61
2020/12/24 02:17:43;;;;;;;9.20;1.40;;;;;;;;;;4961786;28;20051;-62
2020/12/24 02:20:09;;;;;;;9.45;0.80;;;;;;;;;;4958527;28;20058;-62
2020/12/24 02:22:36;;;;;;;3.42;0.80;;;;;;;;;;4961877;28;20104;-61
2020/12/24 02:25:02;;;;;;;3.38;0.75;;;;;;;;;;4963648;28;20043;-64
2020/12/24 02:27:28;;;;;;;4.75;0.65;;;;;;;;;;4958913;28;20042;-61
2020/12/24 02:29:55;;;;;;;5.75;0.90;;;;;;;;;;4962051;28;20059;-62
2020/12/24 02:32:21;;;;;;;3.38;1.00;;;;;;;;;;4943484;28;20051;-62
2020/12/24 02:34:47;;;;;;;4.60;1.25;;;;;;;;;;4960318;28;20166;-62
2020/12/24 02:37:14;;;;;;;6.40;1.10;;;;;;;;;;4958829;28;20099;-62
2020/12/24 02:39:41;;;;;;;6.72;1.40;;;;;;;;;;4944934;29;20040;-62
2020/12/24 02:42:08;;;;;;;6.75;1.30;;;;;;;;;;4943569;28;20043;-62
2020/12/24 02:44:34;;;;;;;2.80;0.90;;;;;;;;;;4945933;29;20039;-62
2020/12/24 02:47:00;;;;;;;4.07;0.95;;;;;;;;;;4933890;28;20059;-62
2020/12/24 02:49:26;;;;;;;5.22;0.85;;;;;;;;;;4926399;29;20044;-62
2020/12/24 02:51:52;;;;;;;2.20;0.93;;;;;;;;;;4924982;28;20072;-62
2020/12/24 02:54:18;;;;;;;4.45;0.98;;;;;;;;;;4923594;29;20040;-62
2020/12/24 02:56:45;;;;;;;10.80;1.40;;;;;;;;;;4926270;28;20052;-62
2020/12/24 02:59:11;;;;;;;12.13;1.35;;;;;;;;;;4946187;28;20179;-61
2020/12/24 03:01:37;;;;;;;11.35;1.15;;;;;;;;;;4941583;28;20047;-62
2020/12/24 03:04:03;;;;;;;8.25;1.17;;;;;;;;;;4957896;28;20058;-62
2020/12/24 03:06:29;;;;;;;10.85;1.50;;;;;;;;;;4960462;28;20055;-62
2020/12/24 03:08:55;;;;;;;5.13;1.23;;;;;;;;;;4942624;28;20126;-62
2020/12/24 03:11:21;;;;;;;4.68;0.90;;;;;;;;;;4961526;28;20045;-62
2020/12/24 03:13:48;;;;;;;4.63;1.08;;;;;;;;;;4953458;28;20104;-62
2020/12/24 03:16:15;;;;;;;9.00;1.30;;;;;;;;;;4961267;28;20060;-62
2020/12/24 03:18:41;;;;;;;5.43;0.90;;;;;;;;;;4957567;28;20036;-62
2020/12/24 03:21:08;;;;;;;10.32;2.08;;;;;;;;;;4960640;28;20062;-62
2020/12/24 03:23:34;;;;;;;8.25;1.20;;;;;;;;;;4965720;28;20043;-62
2020/12/24 03:26:01;;;;;;;7.35;1.15;;;;;;;;;;4963500;28;20038;-62
2020/12/24 03:28:27;;;;;;;6.40;1.15;;;;;;;;;;4969833;28;20044;-61
2020/12/24 03:30:54;;;;;;;11.90;1.40;;;;;;;;;;4961227;28;20052;-62
2020/12/24 03:33:20;;;;;;;7.90;1.40;;;;;;;;;;4956034;28;20042;-62
2020/12/24 03:35:48;;;;;;;9.02;1.15;;;;;;;;;;4961069;28;20087;-62
2020/12/24 03:38:14;;;;;;;9.63;1.30;;;;;;;;;;4942357;28;20107;-62
2020/12/24 03:40:40;;;;;;;5.50;1.00;;;;;;;;;;4960165;28;20051;-62
2020/12/24 03:43:06;;;;;;;7.97;1.45;;;;;;;;;;4973707;28;20044;-62
2020/12/24 03:45:32;;;;;;;6.03;1.50;;;;;;;;;;4941246;28;20055;-62
2020/12/24 03:47:59;;;;;;;5.38;1.35;;;;;;;;;;4944645;29;20052;-62
2020/12/24 03:50:25;;;;;;;16.98;1.42;;;;;;;;;;4958156;28;20047;-62
2020/12/24 03:52:51;;;;;;;12.40;1.83;;;;;;;;;;4960896;28;20050;-62
2020/12/24 03:55:19;;;;;;;6.57;1.02;;;;;;;;;;4969311;28;20053;-62
2020/12/24 03:57:45;;;;;;;12.50;1.30;;;;;;;;;;4964434;28;20059;-61
2020/12/24 04:00:11;;;;;;;5.72;1.13;;;;;;;;;;4951457;28;20063;-61
2020/12/24 04:02:37;;;;;;;7.57;1.20;;;;;;;;;;4959286;28;20075;-62
2020/12/24 04:05:05;;;;;;;8.20;1.38;;;;;;;;;;4958148;28;20051;-62
2020/12/24 04:07:31;;;;;;;8.98;1.23;;;;;;;;;;4979238;28;20043;-61
2020/12/24 04:09:57;;;;;;;6.18;1.52;;;;;;;;;;4954101;28;20027;-62
2020/12/24 04:12:23;;;;;;;4.70;1.10;;;;;;;;;;4945348;28;20079;-61
2020/12/24 04:14:49;;;;;;;9.75;1.25;;;;;;;;;;4957409;28;20624;-61
2020/12/24 04:17:17;;;;;;;8.10;1.55;;;;;;;;;;4944015;28;20039;-62
2020/12/24 04:19:43;;;;;;;5.70;1.02;;;;;;;;;;4941066;28;20125;-61
2020/12/24 04:22:10;;;;;;;9.20;1.20;;;;;;;;;;4959025;28;20062;-62
2020/12/24 04:24:36;;;;;;;7.40;1.15;;;;;;;;;;4945998;28;20039;-62
2020/12/24 04:27:02;;;;;;;8.27;1.10;;;;;;;;;;4958076;28;20050;-62
2020/12/24 04:29:28;;;;;;;8.07;1.42;;;;;;;;;;4962348;28;20063;-61
2020/12/24 04:31:54;;;;;;;6.68;1.02;;;;;;;;;;4946648;28;20040;-62
2020/12/24 04:34:20;;;;;;;8.73;0.90;;;;;;;;;;4960100;28;20051;-62
2020/12/24 04:36:49;;;;;;;7.78;1.27;;;;;;;;;;4965964;28;20043;-62
2020/12/24 04:39:15;;;;;;;7.03;0.95;;;;;;;;;;4964036;28;20047;-62
2020/12/24 04:41:42;;;;;;;9.88;1.10;;;;;;;;;;4959396;28;20040;-62
2020/12/24 04:44:08;;;;;;;6.05;1.20;;;;;;;;;;4940134;28;20040;-62
2020/12/24 04:46:36;;;;;;;7.28;1.30;;;;;;;;;;4943465;28;20050;-62
2020/12/24 04:49:02;;;;;;;6.80;1.00;;;;;;;;;;4956998;28;20051;-61
2020/12/24 04:51:28;;;;;;;3.67;0.55;;;;;;;;;;4939193;28;20144;-62
2020/12/24 04:53:54;;;;;;;1.60;0.50;;;;;;;;;;4959165;28;20042;-62
2020/12/24 04:56:22;;;;;;;0.30;0.30;;;;;;;;;;4939796;28;20055;-61
2020/12/24 04:58:48;;;;;;;1.15;0.47;;;;;;;;;;4958003;28;20048;-62
2020/12/24 05:01:14;;;;;;;1.65;0.60;;;;;;;;;;4959637;28;20052;-61
2020/12/24 05:03:41;;;;;;;0.35;0.30;;;;;;;;;;4951485;28;20071;-62
2020/12/24 05:06:12;;;;;;;0.80;0.32;;;;;;;;;;4923377;29;20077;-62
2020/12/24 05:08:38;;;;;;;0.75;0.30;;;;;;;;;;4930656;28;20110;-61
2020/12/24 05:11:06;;;;;;;0.43;0.32;;;;;;;;;;4958151;28;20047;-62
2020/12/24 05:13:33;;;;;;;0.55;0.30;;;;;;;;;;4940777;28;20055;-62
2020/12/24 05:16:13;;;;;;;0.85;0.30;;;;;;;;;;4959899;28;20075;-62
2020/12/24 05:18:42;;;;;;;0.10;0.10;;;;;;;;;;4944166;28;20047;-62
2020/12/24 05:21:08;;;;;;;0.20;0.20;;;;;;;;;;4962653;28;20031;-62
2020/12/24 05:23:34;;;;;;;0.20;0.20;;;;;;;;;;4959335;28;20040;-62
2020/12/24 05:26:00;;;;;;;0.17;0.15;;;;;;;;;;4946213;28;20043;-62
2020/12/24 05:28:27;;;;;;;0.10;0.10;;;;;;;;;;4959184;28;20050;-61
2020/12/24 05:30:55;;;;;;;0.10;0.10;;;;;;;;;;4963264;28;20126;-61
2020/12/24 05:33:28;;;;;;;0.45;0.20;;;;;;;;;;4945475;28;20047;-61
2020/12/24 05:36:13;;;;;;;0.20;0.20;;;;;;;;;;4962643;28;20094;-61
2020/12/24 05:38:39;;;;;;;0.45;0.20;;;;;;;;;;4944599;28;20051;-61
2020/12/24 05:41:22;;;;;;;0.32;0.10;;;;;;;;;;4961865;28;20057;-60
2020/12/24 05:43:57;;;;;;;0.10;0.10;;;;;;;;;;4936615;28;20054;-60
2020/12/24 05:46:24;;;;;;;0.32;0.10;;;;;;;;;;4926111;29;20029;-60
2020/12/24 05:48:50;;;;;;;0.68;0.20;;;;;;;;;;4939668;28;20048;-60
2020/12/24 05:51:18;;;;;;;0.20;0.20;;;;;;;;;;4928197;28;20047;-60
2020/12/24 05:53:44;;;;;;;1.10;0.20;;;;;;;;;;4927086;28;20044;-60
2020/12/24 05:56:18;;;;;;;0.10;0.10;;;;;;;;;;4961531;28;20036;-60
2020/12/24 05:58:46;;;;;;;0.55;0.20;;;;;;;;;;4940798;28;20039;-60
2020/12/24 06:01:13;;;;;;;1.45;0.20;;;;;;;;;;4961325;28;20051;-60
2020/12/24 06:03:55;;;;;;;0.28;0.15;;;;;;;;;;4961061;28;20043;-60
2020/12/24 06:06:31;;;;;;;0.75;0.20;;;;;;;;;;4925046;28;20084;-60
2020/12/24 06:09:03;;;;;;;0.20;0.20;;;;;;;;;;4923846;28;20052;-60
2020/12/24 06:11:30;;;;;;;0.10;0.10;;;;;;;;;;4926495;29;20056;-60
2020/12/24 06:13:58;;;;;;;0.10;0.10;;;;;;;;;;4919240;28;20137;-61
2020/12/24 06:16:27;;;;;;;0.20;0.10;;;;;;;;;;4954924;28;20058;-60
2020/12/24 06:18:59;;;;;;;0.80;0.30;;;;;;;;;;4961360;28;20036;-60
2020/12/24 06:21:26;;;;;;;0.08;0.08;;;;;;;;;;4958101;28;20047;-60
2020/12/24 06:23:57;;;;;;;0.20;0.20;;;;;;;;;;4980779;28;20043;-60
2020/12/24 06:26:26;;;;;;;0.30;0.15;;;;;;;;;;4945547;28;20049;-60
2020/12/24 06:28:54;;;;;;;0.70;0.30;;;;;;;;;;4946392;28;20036;-60
2020/12/24 06:31:21;;;;;;;0.20;0.20;;;;;;;;;;4957090;28;20060;-60
2020/12/24 06:33:47;;;;;;;0.17;0.17;;;;;;;;;;4961959;28;20036;-60
2020/12/24 06:36:34;;;;;;;0.20;0.20;;;;;;;;;;4958621;28;20044;-60
2020/12/24 06:39:00;;;;;;;0.15;0.15;;;;;;;;;;4959988;28;20087;-60
2020/12/24 06:41:30;;;;;;;0.20;0.20;;;;;;;;;;4957598;28;20106;-60
2020/12/24 06:43:56;;;;;;;0.30;0.17;;;;;;;;;;4949773;28;20182;-60
2020/12/24 06:46:23;;;;;;;0.63;0.30;;;;;;;;;;4939797;28;20044;-60
2020/12/24 06:48:59;;;;;;;0.30;0.30;;;;;;;;;;4924895;29;20093;-60
2020/12/24 06:51:25;;;;;;;0.52;0.28;;;;;;;;;;4932148;28;20039;-61
2020/12/24 06:53:52;;;;;;;0.55;0.30;;;;;;;;;;4960760;28;20083;-60
2020/12/24 06:56:23;;;;;;;0.40;0.22;;;;;;;;;;4958942;28;20043;-61
2020/12/24 06:58:49;;;;;;;0.30;0.30;;;;;;;;;;4946416;28;20080;-61
2020/12/24 07:01:16;;;;;;;0.20;0.20;;;;;;;;;;4960299;28;20075;-60
2020/12/24 07:03:42;;;;;;;0.25;0.25;;;;;;;;;;4953343;28;20031;-61
2020/12/24 07:06:09;;;;;;;0.70;0.30;;;;;;;;;;4954153;28;20043;-60
2020/12/24 07:08:45;;;;;;;0.32;0.28;;;;;;;;;;4945003;28;20054;-61
2020/12/24 07:11:12;;;;;;;1.73;0.65;;;;;;;;;;4945673;28;20047;-60
2020/12/24 07:13:39;;;;;;;0.88;0.50;;;;;;;;;;4943082;28;20055;-60
2020/12/24 07:16:06;;;;;;;0.28;0.28;;;;;;;;;;4941864;28;20114;-60
2020/12/24 07:18:32;;;;;;;0.82;0.30;;;;;;;;;;4944819;28;20039;-60
2020/12/24 07:20:59;;;;;;;0.20;0.20;;;;;;;;;;4942323;28;20058;-60
2020/12/24 07:23:29;;;;;;;0.85;0.30;;;;;;;;;;4939529;28;20043;-60
2020/12/24 07:25:56;;;;;;;2.00;0.22;;;;;;;;;;4943772;28;20047;-60
2020/12/24 07:28:25;;;;;;;0.30;0.20;;;;;;;;;;4938488;28;20054;-60
2020/12/24 07:30:58;;;;;;;0.28;0.28;;;;;;;;;;4939983;29;20051;-60
2020/12/24 07:33:24;;;;;;;0.20;0.20;;;;;;;;;;4940716;28;20075;-60
2020/12/24 07:35:50;;;;;;;1.35;0.17;;;;;;;;;;4942553;28;20087;-60
2020/12/24 07:38:18;;;;;;;0.50;0.20;;;;;;;;;;4951392;28;20051;-60
2020/12/24 07:40:44;;;;;;;0.13;0.13;;;;;;;;;;4957369;28;20044;-60
2020/12/24 07:43:13;;;;;;;0.65;0.30;;;;;;;;;;4938182;28;20108;-60
2020/12/24 07:45:41;;;;;;;3.47;0.40;;;;;;;;;;4943042;28;20051;-60
2020/12/24 07:48:10;;;;;;;0.88;0.60;;;;;;;;;;4937383;28;20454;-60
2020/12/24 07:50:36;;;;;;;0.25;0.25;;;;;;;;;;4940683;28;20062;-60
2020/12/24 07:53:02;;;;;;;0.40;0.25;;;;;;;;;;4957214;28;20033;-61
2020/12/24 07:55:29;;;;;;;0.57;0.38;;;;;;;;;;4935723;28;20048;-60
2020/12/24 07:58:05;;;;;;;1.92;0.40;;;;;;;;;;4958303;28;20052;-60
2020/12/24 08:00:31;;;;;;;1.38;0.47;;;;;;;;;;4935737;28;20078;-60
2020/12/24 08:03:01;;;;;;;0.57;0.30;;;;;;;;;;4941373;28;20113;-60
2020/12/24 08:05:27;;;;;;;1.85;0.68;;;;;;;;;;4938769;28;20127;-60
2020/12/24 08:07:53;;;;;;;0.95;0.50;;;;;;;;;;4955624;28;20052;-60
2020/12/24 08:10:19;;;;;;;0.82;0.68;;;;;;;;;;4943413;28;20122;-60
2020/12/24 08:12:45;;;;;;;1.85;0.60;;;;;;;;;;4939879;28;20048;-60
2020/12/24 08:15:13;;;;;;;3.97;0.85;;;;;;;;;;4949374;28;20051;-60
2020/12/24 08:17:43;;;;;;;1.05;0.57;;;;;;;;;;4944918;28;20107;-60
2020/12/24 08:20:11;;;;;;;2.22;0.90;;;;;;;;;;4941979;28;20059;-60
2020/12/24 08:22:43;;;;;;;1.95;0.80;;;;;;;;;;4960814;28;20050;-60
2020/12/24 08:25:10;;;;;;;1.60;0.55;;;;;;;;;;4941684;28;20046;-60
2020/12/24 08:27:36;;;;;;;0.90;0.65;;;;;;;;;;4960219;28;20059;-60
2020/12/24 08:30:02;;;;;;;1.20;0.60;;;;;;;;;;4956416;28;20047;-60
2020/12/24 08:32:28;;;;;;;0.82;0.57;;;;;;;;;;4961358;28;20043;-60
2020/12/24 08:34:55;;;;;;;1.58;0.50;;;;;;;;;;4957071;28;20058;-60
2020/12/24 08:37:28;;;;;;;4.78;0.80;;;;;;;;;;4959744;28;20036;-60
2020/12/24 08:39:54;;;;;;;2.20;0.73;;;;;;;;;;4958049;28;20126;-60
2020/12/24 08:42:22;;;;;;;2.05;0.68;;;;;;;;;;4942548;28;20036;-60
2020/12/24 08:44:54;;;;;;;0.77;0.60;;;;;;;;;;4943749;29;20139;-60
2020/12/24 08:47:22;;;;;;;1.63;0.70;;;;;;;;;;4963239;28;20047;-60
2020/12/24 08:49:48;;;;;;;1.83;0.77;;;;;;;;;;4943237;29;20152;-60
2020/12/24 08:52:17;;;;;;;3.42;1.02;;;;;;;;;;4942753;28;20036;-60
2020/12/24 08:54:43;;;;;;;;;;;;;;;;;;4963151;28;20039;-60
2020/12/24 08:57:11;;;;;;;2.15;0.70;;;;;;;;;;4968158;28;19990;-60
2020/12/24 08:59:37;;;;;;;1.30;0.80;;;;;;;;;;4964953;28;20035;-60
2020/12/24 09:02:03;;;;;;;2.60;0.75;;;;;;;;;;4953626;28;20133;-60
2020/12/24 09:04:29;;;;;;;1.25;0.60;;;;;;;;;;4962203;28;20062;-60
2020/12/24 09:06:56;;;;;;;1.75;0.80;;;;;;;;;;4951057;28;20051;-60
2020/12/24 09:09:22;;;;;;;1.52;0.70;;;;;;;;;;4967382;28;20058;-60
2020/12/24 09:11:49;;;;;;;1.90;0.82;;;;;;;;;;4973619;28;20070;-60
2020/12/24 09:14:21;;;;;;;1.63;0.47;;;;;;;;;;4946620;28;20083;-60
2020/12/24 09:16:54;;;;;;;1.85;0.68;;;;;;;;;;4958606;28;20062;-60
2020/12/24 09:19:20;;;;;;;5.35;0.63;;;;;;;;;;4947816;28;20044;-60
2020/12/24 09:21:50;;;;;;;0.80;0.50;;;;;;;;;;4942061;28;20043;-60
2020/12/24 09:24:16;;;;;;;1.58;0.60;;;;;;;;;;4966040;28;20061;-60
2020/12/24 09:26:44;;;;;;;3.55;0.70;;;;;;;;;;4965398;28;20039;-60
2020/12/24 09:29:10;;;;;;;1.10;0.60;;;;;;;;;;4943726;28;20051;-60
2020/12/24 09:31:37;;;;;;;5.55;0.70;;;;;;;;;;4948680;28;20043;-60
2020/12/24 09:34:03;;;;;;;1.55;0.68;;;;;;;;;;4959675;28;20043;-60
2020/12/24 09:36:29;;;;;;;3.28;0.73;;;;;;;;;;4944659;28;20079;-60
2020/12/24 09:38:55;;;;;;;4.72;0.90;;;;;;;;;;4959056;28;20051;-60
2020/12/24 09:41:21;;;;;;;1.73;0.82;;;;;;;;;;4961123;28;20134;-60
2020/12/24 09:43:47;;;;;;;5.32;0.90;;;;;;;;;;4948059;28;20055;-60
2020/12/24 09:46:14;;;;;;;2.72;0.73;;;;;;;;;;4944556;29;20040;-60
2020/12/24 09:48:41;;;;;;;2.90;1.00;;;;;;;;;;4950469;28;20039;-60
2020/12/24 09:51:07;;;;;;;5.05;0.82;;;;;;;;;;4924934;29;20080;-60
2020/12/24 09:53:33;;;;;;;1.50;0.80;;;;;;;;;;4904946;29;20122;-60
2020/12/24 09:55:59;;;;;;;2.40;0.90;;;;;;;;;;4928901;29;20109;-60
2020/12/24 09:58:25;;;;;;;1.60;0.68;;;;;;;;;;4925275;28;20059;-60
2020/12/24 10:00:51;;;;;;;2.50;1.00;;;;;;;;;;4930552;28;20047;-60
2020/12/24 10:03:17;;;;;;;9.15;2.95;;;;;;;;;;4940447;28;20042;-60
2020/12/24 10:05:45;;;;;;;2.30;0.90;;;;;;;;;;4908530;29;20051;-60
2020/12/24 10:08:11;;;;;;;4.50;0.90;;;;;;;;;;4925772;29;20048;-60
2020/12/24 10:10:37;;;;;;;1.77;0.70;;;;;;;;;;4954581;28;20046;-60
2020/12/24 10:13:03;;;;;;;2.10;0.73;;;;;;;;;;4960454;28;20059;-60
2020/12/24 10:15:30;;;;;;;2.17;0.77;;;;;;;;;;4943363;28;20097;-60
2020/12/24 10:17:56;;;;;;;0.90;0.68;;;;;;;;;;4925430;29;20063;-60
2020/12/24 10:20:22;;;;;;;4.75;1.20;;;;;;;;;;4904331;29;20097;-60
2020/12/24 10:22:49;;;;;;;2.17;0.90;;;;;;;;;;4927146;29;20048;-60
2020/12/24 10:25:16;;;;;;;4.28;1.05;;;;;;;;;;4928850;28;20090;-60
2020/12/24 10:27:42;;;;;;;2.30;0.90;;;;;;;;;;4927741;29;20095;-60
2020/12/24 10:30:08;;;;;;;2.60;0.93;;;;;;;;;;4939286;28;20068;-60
2020/12/24 10:32:36;;;;;;;2.25;0.80;;;;;;;;;;4941219;29;20047;-60
2020/12/24 10:35:02;;;;;;;2.55;0.93;;;;;;;;;;4938886;28;20357;-60
2020/12/24 10:37:28;;;;;;;5.43;1.17;;;;;;;;;;4942366;28;20052;-59
2020/12/24 10:39:55;;;;;;;4.63;1.00;;;;;;;;;;4911660;28;20130;-60
2020/12/24 10:42:21;;;;;;;2.42;0.77;;;;;;;;;;4937903;28;20660;-60
2020/12/24 10:44:47;;;;;;;5.28;1.00;;;;;;;;;;4979593;28;20090;-60
2020/12/24 10:47:13;;;;;;;3.42;1.10;;;;;;;;;;4943942;28;20047;-60
2020/12/24 10:49:41;;;;;;;6.07;0.98;;;;;;;;;;4946518;28;20051;-60
2020/12/24 10:52:09;;;;;;;3.97;1.00;;;;;;;;;;4942159;28;20043;-60
2020/12/24 10:54:35;;;;;;;4.25;1.20;;;;;;;;;;4961920;28;20051;-60
2020/12/24 10:57:02;;;;;;;1.95;0.80;;;;;;;;;;4946443;28;20055;-60
2020/12/24 10:59:28;;;;;;;4.53;1.10;;;;;;;;;;4953114;28;20044;-60
2020/12/24 11:01:54;;;;;;;3.92;1.10;;;;;;;;;;4943546;28;20075;-60
2020/12/24 11:04:20;;;;;;;2.53;0.70;;;;;;;;;;4946598;28;20051;-60
2020/12/24 11:06:47;;;;;;;2.47;0.80;;;;;;;;;;4966293;28;20090;-60
2020/12/24 11:09:14;;;;;;;4.53;0.88;;;;;;;;;;4964160;28;20055;-60
2020/12/24 11:11:40;;;;;;;5.03;1.40;;;;;;;;;;4956911;28;20071;-60
2020/12/24 11:14:07;;;;;;;6.55;1.20;;;;;;;;;;4944185;29;20047;-60
2020/12/24 11:16:35;;;;;;;3.42;1.00;;;;;;;;;;4944932;28;20038;-60
2020/12/24 11:19:01;;;;;;;5.25;1.02;;;;;;;;;;4981239;28;20047;-60
2020/12/24 11:21:30;;;;;;;13.05;1.65;;;;;;;;;;4957444;28;20039;-60
2020/12/24 11:23:56;;;;;;;7.22;1.52;;;;;;;;;;4957564;28;20048;-60
2020/12/24 11:26:22;;;;;;;4.45;1.10;;;;;;;;;;4925130;29;20064;-60
2020/12/24 11:28:48;;;;;;;7.75;1.10;;;;;;;;;;4940528;28;20050;-60
2020/12/24 11:31:21;;;;;;;3.92;0.80;;;;;;;;;;4963596;28;20055;-60
2020/12/24 11:33:47;;;;;;;2.67;0.73;;;;;;;;;;4958318;28;20043;-60
2020/12/24 11:36:14;;;;;;;4.32;0.90;;;;;;;;;;4960823;28;20125;-60
2020/12/24 11:38:41;;;;;;;4.15;0.90;;;;;;;;;;4945714;28;20110;-60
2020/12/24 11:41:07;;;;;;;8.40;1.10;;;;;;;;;;4940156;28;20059;-60
2020/12/24 11:43:33;;;;;;;3.35;0.95;;;;;;;;;;4941853;28;20048;-60
2020/12/24 11:45:59;;;;;;;3.60;0.98;;;;;;;;;;4944774;28;20068;-60
2020/12/24 11:48:26;;;;;;;4.70;0.85;;;;;;;;;;4931915;28;20263;-60
2020/12/24 11:50:52;;;;;;;3.75;1.10;;;;;;;;;;4927227;28;20048;-60
2020/12/24 11:53:18;;;;;;;4.55;1.17;;;;;;;;;;4921708;28;20058;-60
2020/12/24 11:55:44;;;;;;;5.65;0.90;;;;;;;;;;4926109;29;20048;-60
2020/12/24 11:58:10;;;;;;;8.43;1.00;;;;;;;;;;4925804;28;20071;-60
2020/12/24 12:00:39;;;;;;;4.68;0.88;;;;;;;;;;4960845;28;20047;-60
2020/12/24 12:03:05;;;;;;;5.47;0.82;;;;;;;;;;4972178;28;20062;-60
2020/12/24 12:05:35;;;;;;;8.35;0.90;;;;;;;;;;4959650;28;20039;-60
2020/12/24 12:08:01;;;;;;;9.90;1.13;;;;;;;;;;4944295;29;20040;-60
2020/12/24 12:10:27;;;;;;;7.00;1.10;;;;;;;;;;4974908;28;20039;-60
2020/12/24 12:12:53;;;;;;;5.38;0.90;;;;;;;;;;4961874;28;20039;-60
2020/12/24 12:15:20;;;;;;;8.98;1.20;;;;;;;;;;4943791;28;20051;-60
2020/12/24 12:17:46;;;;;;;5.47;1.15;;;;;;;;;;4959962;28;20056;-60
2020/12/24 12:20:12;;;;;;;7.88;1.20;;;;;;;;;;4928394;28;20100;-60
2020/12/24 12:22:39;;;;;;;4.53;0.80;;;;;;;;;;4939509;28;20052;-60
2020/12/24 12:25:05;;;;;;;5.97;1.05;;;;;;;;;;4930648;28;20043;-60
2020/12/24 12:27:31;;;;;;;7.32;1.27;;;;;;;;;;4961598;28;20043;-60
2020/12/24 12:29:57;;;;;;;3.90;0.85;;;;;;;;;;4953367;28;20090;-60
2020/12/24 12:32:23;;;;;;;7.22;1.30;;;;;;;;;;4967666;28;20043;-60
2020/12/24 12:34:49;;;;;;;6.25;0.88;;;;;;;;;;4973489;28;20039;-60
2020/12/24 12:37:17;;;;;;;9.35;1.13;;;;;;;;;;4946995;28;20059;-60
2020/12/24 12:39:45;;;;;;;9.30;1.10;;;;;;;;;;4959770;28;20099;-60
2020/12/24 12:42:14;;;;;;;5.22;0.85;;;;;;;;;;4962284;28;20240;-60
2020/12/24 12:44:40;;;;;;;6.00;1.17;;;;;;;;;;4944861;28;20087;-60
2020/12/24 12:47:06;;;;;;;5.30;0.98;;;;;;;;;;4963060;28;20048;-60
2020/12/24 12:49:32;;;;;;;11.13;1.15;;;;;;;;;;4961956;28;20051;-60
2020/12/24 12:52:00;;;;;;;6.40;0.85;;;;;;;;;;4962165;28;20048;-60
2020/12/24 12:54:27;;;;;;;6.07;0.93;;;;;;;;;;4964451;28;20055;-60
2020/12/24 12:56:57;;;;;;;5.38;1.00;;;;;;;;;;4972917;28;20094;-60
2020/12/24 12:59:23;;;;;;;4.78;1.05;;;;;;;;;;4967233;28;20031;-60
2020/12/24 13:01:51;;;;;;;10.55;0.98;;;;;;;;;;4936478;28;20044;-60
2020/12/24 13:04:17;;;;;;;8.02;0.80;;;;;;;;;;4930493;28;20044;-60
2020/12/24 13:06:44;;;;;;;10.35;1.00;;;;;;;;;;4944379;28;20074;-60
2020/12/24 13:09:10;;;;;;;9.52;1.00;;;;;;;;;;4966869;28;20137;-60
2020/12/24 13:11:36;;;;;;;9.70;1.40;;;;;;;;;;4970452;28;20055;-60
2020/12/24 13:14:04;;;;;;;4.30;1.00;;;;;;;;;;4943408;28;20055;-60
2020/12/24 13:16:30;;;;;;;7.22;1.27;;;;;;;;;;4944662;28;20036;-60
2020/12/24 13:18:56;;;;;;;9.98;1.05;;;;;;;;;;4947003;28;20048;-60
2020/12/24 13:21:22;;;;;;;5.18;1.10;;;;;;;;;;4944085;28;20062;-60
2020/12/24 13:23:49;;;;;;;10.57;1.00;;;;;;;;;;4962374;28;20039;-60
2020/12/24 13:26:21;;;;;;;11.20;2.88;;;;;;;;;;4942057;28;20088;-61
2020/12/24 13:28:47;;;;;;;7.60;1.95;;;;;;;;;;4957436;28;20035;-60
2020/12/24 13:31:14;;;;;;;2.05;0.65;;;;;;;;;;4940012;29;20043;-60
2020/12/24 13:33:40;;;;;;;2.40;0.63;;;;;;;;;;4956390;28;20038;-60
2020/12/24 13:36:09;;;;;;;10.43;0.90;;;;;;;;;;4925656;28;20048;-60
2020/12/24 13:38:37;;;;;;;2.13;0.60;;;;;;;;;;4953091;28;20035;-61
2020/12/24 13:41:03;;;;;;;8.48;0.90;;;;;;;;;;4965098;28;20047;-60
2020/12/24 13:43:29;;;;;;;4.75;0.60;;;;;;;;;;4943874;28;20152;-60
2020/12/24 13:45:56;;;;;;;2.70;0.60;;;;;;;;;;4963003;28;20043;-60
2020/12/24 13:48:23;;;;;;;5.63;0.98;;;;;;;;;;4932099;28;20044;-60
2020/12/24 13:50:51;;;;;;;7.18;1.02;;;;;;;;;;4926195;29;20032;-60
2020/12/24 13:53:17;;;;;;;5.25;1.05;;;;;;;;;;4940206;28;20126;-60
2020/12/24 13:55:44;;;;;;;5.82;0.70;;;;;;;;;;4942206;28;20040;-60
2020/12/24 13:58:10;;;;;;;4.10;0.60;;;;;;;;;;4925379;28;20048;-60
2020/12/24 14:00:36;;;;;;;2.03;0.60;;;;;;;;;;4927688;29;20096;-60
2020/12/24 14:03:02;;;;;;;7.78;0.82;;;;;;;;;;4942130;28;20067;-60
2020/12/24 14:05:29;;;;;;;6.72;0.95;;;;;;;;;;4962545;28;20130;-60
2020/12/24 14:07:55;;;;;;;5.63;1.02;;;;;;;;;;4957967;28;20084;-60
2020/12/24 14:10:21;;;;;;;6.63;1.30;;;;;;;;;;4960989;28;20067;-60
2020/12/24 14:12:47;;;;;;;3.67;1.15;;;;;;;;;;4962651;28;20067;-60
2020/12/24 14:15:13;;;;;;;9.88;0.88;;;;;;;;;;4975492;28;20039;-60
2020/12/24 14:17:39;;;;;;;6.70;0.90;;;;;;;;;;4966480;28;20062;-61
2020/12/24 14:20:05;;;;;;;4.45;1.10;;;;;;;;;;4962812;28;20047;-60
2020/12/24 14:22:32;;;;;;;7.63;0.90;;;;;;;;;;4960957;28;20054;-60
2020/12/24 14:24:59;;;;;;;8.63;0.73;;;;;;;;;;4955311;28;20058;-60
2020/12/24 14:27:25;;;;;;;5.35;0.80;;;;;;;;;;4964762;28;20035;-60
2020/12/24 14:29:51;;;;;;;4.53;0.70;;;;;;;;;;4969103;28;20126;-60
2020/12/24 14:32:17;;;;;;;5.10;0.68;;;;;;;;;;4964520;28;20068;-60
2020/12/24 14:34:43;;;;;;;5.10;0.50;;;;;;;;;;4952174;28;20044;-60
2020/12/24 14:37:09;;;;;;;3.70;0.70;;;;;;;;;;4942548;28;20076;-60
2020/12/24 14:39:36;;;;;;;6.07;0.93;;;;;;;;;;4929238;28;20150;-60
2020/12/24 14:42:02;;;;;;;4.60;0.70;;;;;;;;;;4960047;28;20077;-60